Time;durP1;ratioP1;P1;durP2;ratioP2;P2;SDS_P1;SDS_P2;PMS_P1;PMS_P2;Temp;Humidity;BMP_temperature;BMP_pressure;BME280_temperature;BME280_humidity;BME280_pressure;Samples;Min_cycle;Max_cycle;Signal;HPM_P1;HPM_P2
2024/01/24 00:00:21;;;;;;;18.60;13.93;;;11.40;99.90;;;;;;5031992;28;20187;-82
2024/01/24 00:02:48;;;;;;;17.17;13.95;;;11.30;99.90;;;;;;5047224;28;20511;-82
2024/01/24 00:05:14;;;;;;;76.93;69.95;;;11.30;99.90;;;;;;5052321;28;20036;-82
2024/01/24 00:07:40;;;;;;;17.88;12.15;;;11.30;99.90;;;;;;5052398;28;20041;-82
2024/01/24 00:10:06;;;;;;;85.65;76.32;;;11.30;99.90;;;;;;5046419;28;20036;-81
2024/01/24 00:12:31;;;;;;;34.67;31.63;;;11.30;99.90;;;;;;5049364;28;20397;-82
2024/01/24 00:14:57;;;;;;;20.98;12.35;;;11.40;99.90;;;;;;5048138;28;20036;-81
2024/01/24 00:17:23;;;;;;;119.20;107.85;;;11.30;99.90;;;;;;5034435;28;20373;-82
2024/01/24 00:19:48;;;;;;;66.45;41.90;;;11.30;99.90;;;;;;5031282;28;20509;-81
2024/01/24 00:22:14;;;;;;;15.90;12.45;;;11.30;99.90;;;;;;5051029;28;20081;-81
2024/01/24 00:24:40;;;;;;;22.08;14.10;;;11.20;99.90;;;;;;5047769;28;20403;-82
2024/01/24 00:27:06;;;;;;;302.58;159.30;;;11.20;99.90;;;;;;5030138;28;20121;-81
2024/01/24 00:29:31;;;;;;;32.08;28.00;;;11.20;99.90;;;;;;5030591;28;20048;-82
2024/01/24 00:31:57;;;;;;;41.53;37.70;;;11.20;99.90;;;;;;5051918;28;20162;-81
2024/01/24 00:34:23;;;;;;;24.00;13.75;;;11.20;99.90;;;;;;5052803;28;20063;-81
2024/01/24 00:36:51;;;;;;;35.13;31.45;;;11.20;99.90;;;;;;5050369;28;20052;-82
2024/01/24 00:39:17;;;;;;;21.50;12.98;;;11.20;99.90;;;;;;5052198;28;20114;-81
2024/01/24 00:41:43;;;;;;;134.70;120.68;;;11.20;99.90;;;;;;5052117;28;20098;-82
2024/01/24 00:44:09;;;;;;;100.22;90.95;;;11.20;99.90;;;;;;5034768;28;20479;-81
2024/01/24 00:46:35;;;;;;;20.38;13.05;;;11.20;99.90;;;;;;5034317;28;20102;-81
2024/01/24 00:49:02;;;;;;;30.38;27.27;;;11.20;99.90;;;;;;5052204;28;20036;-81
2024/01/24 00:51:28;;;;;;;89.45;68.43;;;11.20;99.90;;;;;;5033652;28;20495;-81
2024/01/24 00:53:54;;;;;;;31.75;28.35;;;11.20;99.90;;;;;;5050175;28;20044;-81
2024/01/24 00:56:20;;;;;;;99.68;44.83;;;11.20;99.90;;;;;;5047971;28;20044;-81
2024/01/24 00:58:46;;;;;;;20.88;18.00;;;11.20;99.90;;;;;;5045594;28;20040;-82
2024/01/24 01:01:12;;;;;;;124.28;66.63;;;11.20;99.90;;;;;;5063846;28;20499;-81
2024/01/24 01:03:38;;;;;;;56.08;46.85;;;11.20;99.90;;;;;;5020671;28;20078;-83
2024/01/24 01:06:05;;;;;;;19.17;12.32;;;11.20;99.90;;;;;;5051502;28;20044;-82
2024/01/24 01:08:30;;;;;;;77.70;44.03;;;11.20;99.90;;;;;;5035641;28;20083;-81
2024/01/24 01:10:56;;;;;;;202.75;89.35;;;11.20;99.90;;;;;;5033464;28;20067;-81
2024/01/24 01:13:22;;;;;;;20.30;15.13;;;11.20;99.90;;;;;;5051170;28;20067;-82
2024/01/24 01:15:48;;;;;;;155.35;86.88;;;11.20;99.90;;;;;;5033415;28;20045;-81
2024/01/24 01:18:13;;;;;;;261.92;113.57;;;11.10;99.90;;;;;;5050301;28;20051;-82
2024/01/24 01:20:39;;;;;;;22.10;12.77;;;11.20;99.90;;;;;;5068974;28;20052;-81
2024/01/24 01:23:04;;;;;;;46.45;42.15;;;11.10;99.90;;;;;;5032835;28;20089;-81
2024/01/24 01:25:30;;;;;;;37.63;27.48;;;11.20;99.90;;;;;;5052447;28;20044;-81
2024/01/24 01:27:55;;;;;;;22.52;19.85;;;11.20;99.90;;;;;;5051933;28;20052;-82
2024/01/24 01:30:23;;;;;;;15.93;12.43;;;11.20;99.90;;;;;;5032700;28;20032;-81
2024/01/24 01:32:52;;;;;;;406.63;190.60;;;11.20;99.90;;;;;;5044912;28;20045;-81
2024/01/24 01:35:17;;;;;;;372.02;129.23;;;11.20;99.90;;;;;;5048587;28;20039;-82
2024/01/24 01:37:43;;;;;;;223.65;128.57;;;11.20;99.90;;;;;;5033190;28;20032;-82
2024/01/24 01:40:09;;;;;;;50.40;30.00;;;11.30;99.90;;;;;;5048801;28;20119;-81
2024/01/24 01:42:35;;;;;;;16.63;13.85;;;11.30;99.90;;;;;;5031339;28;20509;-82
2024/01/24 01:45:03;;;;;;;125.00;95.00;;;11.40;99.90;;;;;;5044430;28;20338;-82
2024/01/24 01:47:29;;;;;;;54.35;36.25;;;11.40;99.90;;;;;;5041999;28;20055;-82
2024/01/24 01:49:55;;;;;;;45.22;41.55;;;11.50;99.90;;;;;;5034463;28;20500;-81
2024/01/24 01:52:22;;;;;;;601.33;257.88;;;11.50;99.90;;;;;;5049572;28;20036;-81
2024/01/24 01:54:49;;;;;;;29.35;27.27;;;11.60;99.90;;;;;;5027081;28;20044;-82
2024/01/24 01:57:15;;;;;;;26.13;23.88;;;11.50;99.90;;;;;;5031805;28;20036;-81
2024/01/24 01:59:41;;;;;;;53.35;39.03;;;11.60;99.90;;;;;;5034186;28;20519;-82
2024/01/24 02:02:07;;;;;;;66.22;61.28;;;11.60;99.90;;;;;;5033956;28;20484;-82
2024/01/24 02:04:33;;;;;;;15.00;12.55;;;11.60;99.90;;;;;;5046890;28;20063;-82
2024/01/24 02:07:00;;;;;;;36.90;34.15;;;11.70;99.90;;;;;;5028899;28;20049;-82
2024/01/24 02:09:26;;;;;;;13.95;10.80;;;11.70;99.90;;;;;;5046899;28;20040;-81
2024/01/24 02:11:52;;;;;;;27.13;24.73;;;11.70;99.90;;;;;;5044321;28;20032;-82
2024/01/24 02:14:18;;;;;;;13.32;12.00;;;11.70;99.90;;;;;;5031422;28;20029;-81
2024/01/24 02:16:43;;;;;;;68.25;61.63;;;11.70;99.90;;;;;;5043508;28;20090;-82
2024/01/24 02:19:10;;;;;;;145.95;90.68;;;11.70;99.90;;;;;;5033578;28;20056;-82
2024/01/24 02:21:37;;;;;;;14.50;12.32;;;11.70;99.90;;;;;;5048259;28;20055;-82
2024/01/24 02:24:03;;;;;;;64.22;58.33;;;11.70;99.90;;;;;;5043694;28;20473;-83
2024/01/24 02:26:29;;;;;;;15.23;12.82;;;11.80;99.90;;;;;;5041600;28;20048;-82
2024/01/24 02:28:55;;;;;;;15.48;12.38;;;11.90;99.90;;;;;;5048225;28;20512;-80
2024/01/24 02:31:20;;;;;;;39.38;36.08;;;11.90;99.90;;;;;;5033068;28;20139;-82
2024/01/24 02:33:46;;;;;;;16.65;15.07;;;11.90;99.90;;;;;;5048737;28;20036;-84
2024/01/24 02:36:15;;;;;;;41.60;33.40;;;11.90;99.90;;;;;;5067509;28;20029;-82
2024/01/24 02:38:41;;;;;;;14.75;12.95;;;11.90;99.90;;;;;;5048960;28;20042;-82
2024/01/24 02:41:07;;;;;;;48.03;44.50;;;11.90;99.90;;;;;;5039579;28;20409;-84
2024/01/24 02:43:33;;;;;;;11.68;8.70;;;11.90;99.90;;;;;;5048027;28;20055;-82
2024/01/24 02:46:00;;;;;;;78.68;70.93;;;11.90;99.90;;;;;;5065535;28;20087;-81
2024/01/24 02:48:26;;;;;;;16.25;14.65;;;12.00;99.90;;;;;;5037994;28;20051;-82
2024/01/24 02:50:52;;;;;;;83.90;50.63;;;12.00;99.90;;;;;;5049819;28;20040;-81
2024/01/24 02:53:18;;;;;;;143.85;74.78;;;12.00;99.90;;;;;;5055384;28;20082;-82
2024/01/24 02:55:44;;;;;;;220.00;151.13;;;12.00;99.90;;;;;;5039856;28;20496;-82
2024/01/24 02:58:10;;;;;;;291.55;151.02;;;12.00;99.90;;;;;;5049526;28;20048;-83
2024/01/24 03:00:35;;;;;;;78.22;73.07;;;11.90;99.90;;;;;;5052674;28;20033;-83
2024/01/24 03:03:01;;;;;;;21.83;19.60;;;11.80;99.90;;;;;;5050125;28;20040;-81
2024/01/24 03:05:27;;;;;;;218.20;198.18;;;11.80;99.90;;;;;;5040353;28;20036;-81
2024/01/24 03:07:52;;;;;;;37.88;33.65;;;11.80;99.90;;;;;;5066151;28;20098;-82
2024/01/24 03:10:18;;;;;;;47.22;43.75;;;11.80;99.90;;;;;;5055979;28;20037;-82
2024/01/24 03:12:43;;;;;;;27.10;24.50;;;11.80;99.90;;;;;;5039650;28;20488;-80
2024/01/24 03:15:10;;;;;;;79.60;72.60;;;11.80;99.90;;;;;;5040265;28;20036;-82
2024/01/24 03:17:35;;;;;;;58.85;54.35;;;11.70;99.90;;;;;;5036975;28;20064;-81
2024/01/24 03:20:01;;;;;;;19.85;12.70;;;11.70;99.90;;;;;;5033818;28;20125;-83
2024/01/24 03:22:27;;;;;;;19.63;10.45;;;11.60;99.90;;;;;;5071381;28;20044;-82
2024/01/24 03:24:52;;;;;;;42.95;39.53;;;11.60;99.90;;;;;;5031326;28;20044;-82
2024/01/24 03:27:18;;;;;;;551.80;278.05;;;11.50;99.90;;;;;;5035762;28;20048;-82
2024/01/24 03:29:44;;;;;;;25.02;22.38;;;11.50;99.90;;;;;;5032698;28;20046;-82
2024/01/24 03:32:09;;;;;;;34.65;31.60;;;11.50;99.90;;;;;;5027164;28;20132;-81
2024/01/24 03:34:35;;;;;;;18.70;13.20;;;11.50;99.90;;;;;;5056591;28;20111;-81
2024/01/24 03:37:00;;;;;;;63.10;57.85;;;11.40;99.90;;;;;;5029750;28;20086;-82
2024/01/24 03:39:27;;;;;;;17.17;11.50;;;11.50;99.90;;;;;;5056674;28;20039;-81
2024/01/24 03:41:52;;;;;;;127.30;107.65;;;11.50;99.90;;;;;;5056158;28;20435;-83
2024/01/24 03:44:18;;;;;;;395.13;241.60;;;11.50;99.90;;;;;;5054091;28;20047;-81
2024/01/24 03:46:44;;;;;;;25.10;9.80;;;11.60;99.90;;;;;;5035932;28;20044;-82
2024/01/24 03:49:10;;;;;;;20.92;14.75;;;11.50;99.90;;;;;;5032297;28;20072;-82
2024/01/24 03:51:35;;;;;;;323.17;183.65;;;11.50;99.90;;;;;;5038207;28;20036;-83
2024/01/24 03:54:01;;;;;;;22.10;10.30;;;11.60;99.90;;;;;;5034674;28;20071;-81
2024/01/24 03:56:26;;;;;;;196.25;176.43;;;11.50;99.90;;;;;;5074197;28;20029;-82
2024/01/24 03:58:52;;;;;;;16.67;9.93;;;11.50;99.90;;;;;;5054195;28;20040;-82
2024/01/24 04:01:18;;;;;;;20.20;10.68;;;11.50;99.90;;;;;;5039002;28;20082;-81
2024/01/24 04:03:43;;;;;;;19.15;15.18;;;11.50;99.90;;;;;;5069522;28;20500;-81
2024/01/24 04:06:09;;;;;;;261.08;207.02;;;11.40;99.90;;;;;;5035876;28;20086;-82
2024/01/24 04:08:35;;;;;;;21.90;18.02;;;11.60;99.90;;;;;;5048737;28;20078;-81
2024/01/24 04:11:00;;;;;;;24.00;20.48;;;11.50;99.90;;;;;;5036273;28;20086;-82
2024/01/24 04:13:26;;;;;;;24.80;20.20;;;11.50;99.90;;;;;;5070657;28;20567;-82
2024/01/24 04:15:52;;;;;;;23.58;14.52;;;11.50;99.90;;;;;;5068956;28;20428;-81
2024/01/24 04:18:17;;;;;;;26.55;17.92;;;11.50;99.90;;;;;;5035052;28;20072;-79
2024/01/24 04:20:43;;;;;;;115.35;98.03;;;11.40;99.90;;;;;;5031571;28;20053;-81
2024/01/24 04:23:08;;;;;;;39.72;30.75;;;11.20;99.90;;;;;;5010729;28;20662;-81
2024/01/24 04:25:34;;;;;;;25.38;12.43;;;11.10;99.90;;;;;;5033101;28;20615;-82
2024/01/24 04:28:00;;;;;;;30.02;16.40;;;11.10;99.90;;;;;;5033996;28;20053;-81
2024/01/24 04:30:25;;;;;;;83.50;72.82;;;11.10;99.90;;;;;;5051083;28;20496;-82
2024/01/24 04:32:51;;;;;;;223.73;129.75;;;10.90;99.90;;;;;;5034129;28;20036;-83
2024/01/24 04:35:18;;;;;;;74.03;40.20;;;10.80;99.90;;;;;;5035177;28;20040;-81
2024/01/24 04:37:43;;;;;;;29.95;21.15;;;10.70;99.90;;;;;;5027235;28;20071;-82
2024/01/24 04:40:10;;;;;;;140.20;104.32;;;10.60;99.90;;;;;;5039271;28;20069;-81
2024/01/24 04:42:36;;;;;;;49.03;43.33;;;10.60;99.90;;;;;;5006312;28;20040;-81
2024/01/24 04:45:01;;;;;;;116.65;78.35;;;10.60;99.90;;;;;;5042928;28;20036;-81
2024/01/24 04:47:27;;;;;;;157.52;96.30;;;10.60;99.90;;;;;;5027809;28;20037;-81
2024/01/24 04:49:52;;;;;;;94.10;79.45;;;10.70;99.90;;;;;;5018468;28;20083;-80
2024/01/24 04:52:18;;;;;;;31.30;17.02;;;10.70;99.90;;;;;;5047809;28;20036;-81
2024/01/24 04:54:44;;;;;;;27.70;11.57;;;10.80;99.90;;;;;;5019445;28;20036;-81
2024/01/24 04:57:09;;;;;;;27.67;16.83;;;10.80;99.90;;;;;;5030636;28;20455;-81
2024/01/24 04:59:35;;;;;;;26.05;11.40;;;10.70;99.90;;;;;;5033890;28;20056;-81
2024/01/24 05:02:03;;;;;;;227.20;90.72;;;10.70;99.90;;;;;;5018500;28;20037;-83
2024/01/24 05:04:29;;;;;;;228.75;156.32;;;10.80;99.90;;;;;;5031864;28;20044;-82
2024/01/24 05:06:54;;;;;;;22.80;14.20;;;10.80;99.90;;;;;;5054432;28;20123;-81
2024/01/24 05:09:20;;;;;;;42.08;37.97;;;10.80;99.90;;;;;;5038125;28;20059;-82
2024/01/24 05:11:45;;;;;;;104.93;95.28;;;10.70;99.90;;;;;;5028498;28;20622;-81
2024/01/24 05:14:11;;;;;;;30.88;20.77;;;10.80;99.90;;;;;;5023230;28;20040;-80
2024/01/24 05:16:41;;;;;;;31.25;15.82;;;10.80;99.90;;;;;;5033962;28;20071;-82
2024/01/24 05:19:06;;;;;;;30.92;13.13;;;10.80;99.90;;;;;;5052502;28;20052;-82
2024/01/24 05:21:42;;;;;;;26.02;10.73;;;10.80;99.90;;;;;;5048813;28;20110;-82
2024/01/24 05:24:09;;;;;;;31.83;13.80;;;10.80;99.90;;;;;;5026256;28;20043;-82
2024/01/24 05:26:36;;;;;;;458.13;240.10;;;10.80;99.90;;;;;;5033609;28;20106;-83
2024/01/24 05:29:03;;;;;;;42.80;36.22;;;10.80;99.90;;;;;;5032797;28;20040;-82
2024/01/24 05:31:29;;;;;;;126.50;115.35;;;10.90;99.90;;;;;;5032896;28;20040;-83
2024/01/24 05:33:55;;;;;;;26.65;13.25;;;10.90;99.90;;;;;;5044769;28;20044;-81
2024/01/24 05:36:21;;;;;;;148.65;52.13;;;10.90;99.90;;;;;;5047352;28;20047;-81
2024/01/24 05:38:47;;;;;;;34.30;19.63;;;10.80;99.90;;;;;;5034796;28;20052;-82
2024/01/24 05:41:12;;;;;;;53.55;40.03;;;10.80;99.90;;;;;;5035048;28;20036;-82
2024/01/24 05:43:38;;;;;;;37.65;21.73;;;10.80;99.90;;;;;;5045209;28;20041;-81
2024/01/24 05:46:04;;;;;;;108.93;84.70;;;10.80;99.90;;;;;;5050543;28;20496;-82
2024/01/24 05:48:29;;;;;;;284.38;157.77;;;10.80;99.90;;;;;;5069261;28;20461;-82
2024/01/24 05:50:55;;;;;;;113.00;75.72;;;10.70;99.90;;;;;;5044682;28;20397;-83
2024/01/24 05:53:21;;;;;;;32.22;15.80;;;10.70;99.90;;;;;;5049072;28;20040;-81
2024/01/24 05:55:46;;;;;;;28.15;16.13;;;10.70;99.90;;;;;;5025084;28;20044;-82
2024/01/24 05:58:12;;;;;;;37.85;24.63;;;10.70;99.90;;;;;;5045127;28;20044;-82
2024/01/24 06:00:37;;;;;;;31.88;12.02;;;10.70;99.90;;;;;;5050871;28;20101;-81
2024/01/24 06:03:03;;;;;;;32.38;22.75;;;10.70;99.90;;;;;;5064421;28;20048;-82
2024/01/24 06:05:29;;;;;;;82.85;70.85;;;10.70;99.90;;;;;;5042330;28;20120;-81
2024/01/24 06:07:54;;;;;;;31.52;13.73;;;10.60;99.90;;;;;;5032717;28;20599;-81
2024/01/24 06:10:21;;;;;;;113.72;42.72;;;10.60;99.90;;;;;;5034058;28;20032;-81
2024/01/24 06:12:47;;;;;;;35.67;12.60;;;10.70;99.90;;;;;;5048153;28;20052;-82
2024/01/24 06:15:13;;;;;;;48.30;13.27;;;10.60;99.90;;;;;;5030074;28;20580;-82
2024/01/24 06:17:38;;;;;;;71.15;47.47;;;10.50;99.90;;;;;;5066400;28;20040;-81
2024/01/24 06:20:05;;;;;;;34.45;12.73;;;10.50;99.90;;;;;;5040515;28;20098;-81
2024/01/24 06:22:31;;;;;;;32.50;14.27;;;10.50;99.90;;;;;;5067339;28;20051;-81
2024/01/24 06:24:57;;;;;;;148.95;59.72;;;10.50;99.90;;;;;;5047832;28;20048;-81
2024/01/24 06:27:23;;;;;;;35.75;17.77;;;10.50;99.90;;;;;;5025595;28;20056;-81
2024/01/24 06:29:51;;;;;;;42.42;29.58;;;10.50;99.90;;;;;;5033906;28;20045;-82
2024/01/24 06:32:16;;;;;;;28.63;19.45;;;10.50;99.90;;;;;;5050181;28;20032;-82
2024/01/24 06:34:42;;;;;;;82.60;33.85;;;10.60;99.90;;;;;;5051096;28;20028;-82
2024/01/24 06:37:09;;;;;;;34.70;16.13;;;10.50;99.90;;;;;;5035855;28;20037;-82
2024/01/24 06:39:35;;;;;;;33.83;18.75;;;10.50;99.90;;;;;;5032989;28;20044;-81
2024/01/24 06:42:01;;;;;;;39.75;12.13;;;10.40;99.90;;;;;;5068145;28;20066;-81
2024/01/24 06:44:26;;;;;;;40.95;21.50;;;10.30;99.90;;;;;;5067466;28;20038;-82
2024/01/24 06:46:52;;;;;;;35.45;14.23;;;10.20;99.90;;;;;;5036031;28;20057;-84
2024/01/24 06:49:18;;;;;;;30.40;12.35;;;10.20;99.90;;;;;;5049165;28;20452;-82
2024/01/24 06:51:43;;;;;;;23.85;13.80;;;10.20;99.90;;;;;;5041773;28;20036;-82
2024/01/24 06:54:09;;;;;;;92.88;68.72;;;10.10;99.90;;;;;;5047116;28;20604;-81
2024/01/24 06:56:35;;;;;;;33.35;19.40;;;10.20;99.90;;;;;;5048507;28;20042;-81
2024/01/24 06:59:02;;;;;;;32.42;13.63;;;10.20;99.90;;;;;;5045852;28;20076;-82
2024/01/24 07:01:28;;;;;;;52.85;29.48;;;10.10;99.90;;;;;;5029292;28;20365;-81
2024/01/24 07:03:53;;;;;;;25.73;11.00;;;10.20;99.90;;;;;;5045599;28;20056;-81
2024/01/24 07:06:19;;;;;;;38.55;34.67;;;10.20;99.90;;;;;;5065082;28;20068;-83
2024/01/24 07:08:45;;;;;;;53.83;46.17;;;10.10;99.90;;;;;;5048303;28;20459;-81
2024/01/24 07:11:11;;;;;;;36.83;13.25;;;10.20;99.90;;;;;;5044741;28;20115;-81
2024/01/24 07:13:37;;;;;;;32.33;12.30;;;10.20;99.90;;;;;;5067206;28;20447;-82
2024/01/24 07:16:04;;;;;;;30.27;20.13;;;10.20;99.90;;;;;;5030730;28;20039;-81
2024/01/24 07:18:33;;;;;;;30.70;17.50;;;10.20;99.90;;;;;;5046526;28;20094;-81
2024/01/24 07:21:00;;;;;;;39.88;23.17;;;10.20;99.90;;;;;;5029606;28;20480;-81
2024/01/24 07:23:26;;;;;;;35.45;24.15;;;10.30;99.90;;;;;;5031533;28;20080;-81
2024/01/24 07:25:52;;;;;;;53.85;30.90;;;10.20;99.90;;;;;;5024650;28;20131;-83
2024/01/24 07:28:18;;;;;;;32.13;12.85;;;10.20;99.90;;;;;;5027376;28;20095;-80
2024/01/24 07:30:44;;;;;;;244.85;113.57;;;10.10;99.90;;;;;;5047840;28;20473;-83
2024/01/24 07:33:10;;;;;;;144.85;54.83;;;10.20;99.90;;;;;;5046605;28;20033;-82
2024/01/24 07:35:35;;;;;;;148.82;68.07;;;10.10;99.90;;;;;;5049699;28;20040;-82
2024/01/24 07:38:01;;;;;;;130.88;71.63;;;10.10;99.90;;;;;;5033047;28;20468;-80
2024/01/24 07:40:26;;;;;;;28.27;16.17;;;10.10;99.90;;;;;;5053254;28;20041;-82
2024/01/24 07:42:52;;;;;;;38.97;21.98;;;10.10;99.90;;;;;;5068947;28;20493;-83
2024/01/24 07:45:18;;;;;;;248.20;80.05;;;10.10;99.90;;;;;;5037061;28;20037;-81
2024/01/24 07:47:44;;;;;;;31.65;14.88;;;10.10;99.90;;;;;;5036058;28;20111;-83
2024/01/24 07:50:13;;;;;;;32.72;13.13;;;10.10;99.90;;;;;;5036866;28;20045;-81
2024/01/24 07:52:39;;;;;;;61.10;45.75;;;10.20;99.90;;;;;;5036238;28;20131;-81
2024/01/24 07:55:05;;;;;;;51.55;31.48;;;10.20;99.90;;;;;;5052502;28;20127;-81
2024/01/24 07:57:31;;;;;;;29.23;18.67;;;10.20;99.90;;;;;;5052644;28;20082;-83
2024/01/24 07:59:56;;;;;;;32.65;24.23;;;10.20;99.90;;;;;;5053280;28;20040;-82
2024/01/24 08:02:22;;;;;;;44.65;21.17;;;10.10;99.90;;;;;;5046918;28;20044;-81
2024/01/24 08:04:48;;;;;;;31.13;18.08;;;10.20;99.90;;;;;;5052022;28;20131;-80
2024/01/24 08:07:13;;;;;;;27.60;11.80;;;10.20;99.90;;;;;;5036578;28;20476;-81
2024/01/24 08:09:39;;;;;;;30.98;12.43;;;10.00;99.90;;;;;;5053558;28;20045;-80
2024/01/24 08:12:05;;;;;;;32.00;14.70;;;10.00;99.90;;;;;;5070245;28;20102;-81
2024/01/24 08:14:30;;;;;;;29.70;13.38;;;10.00;99.90;;;;;;5035135;28;20037;-81
2024/01/24 08:17:05;;;;;;;31.65;13.35;;;10.10;99.90;;;;;;5053201;28;20504;-81
2024/01/24 08:19:31;;;;;;;31.70;12.25;;;10.00;99.90;;;;;;5070766;28;20136;-81
2024/01/24 08:21:57;;;;;;;66.88;41.15;;;10.10;99.90;;;;;;5053062;28;20052;-82
2024/01/24 08:24:23;;;;;;;60.63;39.38;;;10.10;99.90;;;;;;5030619;28;20067;-81
2024/01/24 08:26:50;;;;;;;35.22;21.90;;;10.10;99.90;;;;;;5053371;28;20128;-81
2024/01/24 08:29:16;;;;;;;32.88;12.77;;;10.10;99.90;;;;;;5052684;28;20047;-81
2024/01/24 08:31:42;;;;;;;29.63;12.70;;;10.20;99.90;;;;;;5052783;28;20040;-82
2024/01/24 08:34:08;;;;;;;50.30;43.42;;;10.20;99.90;;;;;;5066934;28;20082;-81
2024/01/24 08:36:33;;;;;;;36.40;23.00;;;10.10;99.90;;;;;;5061410;28;20032;-82
2024/01/24 08:39:00;;;;;;;33.47;14.05;;;10.20;99.90;;;;;;5049124;28;20036;-82
2024/01/24 08:41:25;;;;;;;43.97;33.30;;;10.10;99.90;;;;;;5069397;28;20454;-81
2024/01/24 08:43:52;;;;;;;21.13;13.23;;;10.00;99.90;;;;;;5070034;28;20051;-84
2024/01/24 08:46:18;;;;;;;35.90;12.20;;;10.00;99.90;;;;;;5027425;28;20040;-82
2024/01/24 08:48:43;;;;;;;34.20;28.52;;;10.00;99.90;;;;;;5050386;28;20040;-82
2024/01/24 08:51:09;;;;;;;30.42;12.65;;;10.10;99.90;;;;;;5052709;28;20094;-82
2024/01/24 08:53:37;;;;;;;60.97;53.15;;;10.20;99.90;;;;;;5025218;28;20072;-81
2024/01/24 08:56:03;;;;;;;29.00;11.55;;;10.20;99.90;;;;;;5068728;28;20032;-81
2024/01/24 08:58:30;;;;;;;42.88;35.15;;;10.10;99.90;;;;;;5051474;28;20528;-83
2024/01/24 09:00:55;;;;;;;111.35;36.70;;;10.10;99.90;;;;;;5070331;28;20092;-81
2024/01/24 09:03:21;;;;;;;184.02;105.15;;;10.10;99.90;;;;;;5068106;28;20071;-81
2024/01/24 09:05:46;;;;;;;32.03;15.95;;;10.20;99.90;;;;;;5028235;28;20094;-82
2024/01/24 09:08:12;;;;;;;198.23;68.70;;;10.20;99.90;;;;;;5052131;28;20078;-82
2024/01/24 09:10:38;;;;;;;375.77;130.40;;;10.20;99.90;;;;;;5046489;28;20036;-81
2024/01/24 09:13:03;;;;;;;32.15;16.05;;;10.20;99.90;;;;;;5040007;28;20114;-81
2024/01/24 09:15:29;;;;;;;171.68;73.53;;;10.20;99.90;;;;;;5031226;28;20897;-81
2024/01/24 09:17:57;;;;;;;29.05;12.40;;;10.30;99.90;;;;;;5031120;28;20487;-81
2024/01/24 09:20:23;;;;;;;60.10;26.98;;;10.30;99.90;;;;;;5027049;28;20063;-80
2024/01/24 09:22:54;;;;;;;37.42;15.20;;;10.30;99.90;;;;;;5026276;28;20040;-82
2024/01/24 09:25:21;;;;;;;30.23;13.27;;;10.30;99.90;;;;;;5020395;28;20483;-81
2024/01/24 09:27:47;;;;;;;48.40;43.67;;;10.30;99.90;;;;;;5056859;28;20492;-81
2024/01/24 09:30:13;;;;;;;29.75;20.30;;;10.30;99.90;;;;;;5027906;28;20059;-80
2024/01/24 09:32:39;;;;;;;25.98;12.95;;;10.40;99.90;;;;;;5031184;28;20049;-80
2024/01/24 09:35:05;;;;;;;25.40;10.98;;;10.40;99.90;;;;;;5040318;28;20082;-81
2024/01/24 09:37:30;;;;;;;176.43;108.30;;;10.50;99.90;;;;;;5037054;28;20036;-82
2024/01/24 09:39:56;;;;;;;26.90;12.82;;;10.50;99.90;;;;;;5056220;28;20044;-81
2024/01/24 09:42:26;;;;;;;394.98;188.30;;;10.60;99.90;;;;;;5038903;28;20131;-81
2024/01/24 09:44:52;;;;;;;60.47;46.80;;;10.60;99.90;;;;;;5020875;28;20044;-80
2024/01/24 09:47:24;;;;;;;29.50;19.25;;;10.60;99.90;;;;;;5054500;28;20055;-81
2024/01/24 09:49:50;;;;;;;30.23;15.07;;;10.60;99.90;;;;;;5026872;28;20041;-81
2024/01/24 09:52:23;;;;;;;26.67;13.63;;;10.70;99.90;;;;;;5030745;28;20036;-81
2024/01/24 09:54:53;;;;;;;26.90;12.85;;;10.70;99.90;;;;;;5048668;28;20094;-81
2024/01/24 09:57:20;;;;;;;73.13;52.17;;;10.60;99.90;;;;;;5050371;28;20040;-80
2024/01/24 09:59:46;;;;;;;30.50;18.20;;;10.60;99.90;;;;;;5050698;28;20044;-79
2024/01/24 10:02:12;;;;;;;29.58;11.57;;;10.80;99.90;;;;;;5050353;28;20052;-80
2024/01/24 10:04:39;;;;;;;39.40;25.85;;;10.80;99.90;;;;;;5050031;28;20596;-80
2024/01/24 10:07:08;;;;;;;26.05;10.90;;;10.80;99.90;;;;;;5068860;28;20040;-82
2024/01/24 10:09:34;;;;;;;37.72;34.05;;;10.80;99.90;;;;;;5043354;28;20040;-81
2024/01/24 10:11:59;;;;;;;43.17;37.38;;;10.90;99.90;;;;;;5050110;28;20648;-80
2024/01/24 10:14:25;;;;;;;27.38;12.60;;;10.90;99.90;;;;;;5064438;28;20116;-80
2024/01/24 10:16:51;;;;;;;30.52;11.48;;;10.90;99.90;;;;;;5041946;28;20079;-80
2024/01/24 10:19:23;;;;;;;161.35;92.90;;;11.00;99.90;;;;;;5044684;28;20179;-83
2024/01/24 10:21:49;;;;;;;55.97;29.02;;;10.90;99.90;;;;;;5030962;28;20045;-81
2024/01/24 10:24:15;;;;;;;30.63;13.65;;;11.00;99.90;;;;;;5032924;28;20036;-83
2024/01/24 10:26:40;;;;;;;25.42;12.65;;;11.00;99.90;;;;;;5050479;28;20763;-80
2024/01/24 10:29:10;;;;;;;31.35;14.43;;;11.10;99.90;;;;;;5033249;28;20032;-81
2024/01/24 10:31:36;;;;;;;32.25;18.67;;;11.10;99.90;;;;;;5050405;28;20036;-81
2024/01/24 10:34:03;;;;;;;28.83;12.85;;;11.20;99.90;;;;;;5046764;28;20036;-80
2024/01/24 10:36:30;;;;;;;26.52;14.60;;;11.10;99.90;;;;;;5031845;28;20036;-80
2024/01/24 10:38:58;;;;;;;31.02;12.10;;;11.10;99.90;;;;;;5047957;28;20041;-82
2024/01/24 10:41:29;;;;;;;26.98;13.25;;;11.20;99.90;;;;;;5049893;28;20075;-82
2024/01/24 10:43:57;;;;;;;77.22;55.45;;;11.30;99.90;;;;;;5067861;28;20036;-80
2024/01/24 10:46:23;;;;;;;33.67;22.02;;;11.40;99.90;;;;;;5066928;28;20045;-81
2024/01/24 10:48:50;;;;;;;29.55;14.05;;;11.50;99.90;;;;;;5030229;28;20128;-81
2024/01/24 10:51:18;;;;;;;39.20;31.58;;;11.40;99.90;;;;;;5023809;28;20401;-80
2024/01/24 10:53:45;;;;;;;26.00;14.93;;;11.30;99.90;;;;;;5022290;28;20362;-81
2024/01/24 10:56:15;;;;;;;35.10;25.92;;;11.30;99.90;;;;;;5026588;28;20444;-84
2024/01/24 10:58:42;;;;;;;23.85;10.43;;;11.20;99.90;;;;;;5046299;28;20148;-81
2024/01/24 11:01:08;;;;;;;54.55;35.28;;;11.10;99.90;;;;;;5065590;28;20073;-80
2024/01/24 11:03:34;;;;;;;31.58;19.80;;;11.20;99.90;;;;;;5045248;28;20041;-80
2024/01/24 11:06:03;;;;;;;161.13;89.28;;;11.10;99.90;;;;;;5043672;28;20037;-83
2024/01/24 11:08:48;;;;;;;47.15;42.65;;;11.10;99.90;;;;;;5047311;28;21826;-81
2024/01/24 11:11:17;;;;;;;158.85;97.80;;;11.10;99.90;;;;;;5061483;28;20032;-83
2024/01/24 11:13:43;;;;;;;25.80;12.65;;;11.10;99.90;;;;;;5044671;28;20036;-79
2024/01/24 11:16:29;;;;;;;30.50;16.52;;;11.10;99.90;;;;;;5041423;28;20040;-81
2024/01/24 11:18:59;;;;;;;25.73;10.82;;;11.00;99.90;;;;;;5061979;28;20061;-81
2024/01/24 11:21:28;;;;;;;49.50;23.55;;;10.90;99.90;;;;;;5048655;28;20287;-81
2024/01/24 11:23:53;;;;;;;25.42;11.88;;;10.90;99.90;;;;;;5030996;28;20032;-81
2024/01/24 11:26:19;;;;;;;37.88;31.92;;;10.90;99.90;;;;;;5030540;28;20093;-80
2024/01/24 11:28:46;;;;;;;63.60;53.33;;;10.90;99.90;;;;;;5050591;28;20504;-82
2024/01/24 11:31:12;;;;;;;39.85;16.13;;;11.00;99.90;;;;;;5024327;28;20041;-82
2024/01/24 11:34:10;;;;;;;127.03;88.10;;;11.10;99.90;;;;;;5030818;28;20060;-81
2024/01/24 11:36:53;;;;;;;28.00;12.95;;;11.00;99.90;;;;;;5042953;28;20111;-80
2024/01/24 11:39:35;;;;;;;29.50;11.70;;;11.00;99.90;;;;;;5047864;28;20052;-81
2024/01/24 11:42:26;;;;;;;59.20;47.92;;;10.90;99.90;;;;;;5023976;28;20068;-82
2024/01/24 11:45:12;;;;;;;31.27;16.00;;;10.90;99.90;;;;;;5043485;28;20045;-82
2024/01/24 11:47:39;;;;;;;18.90;15.30;;;10.90;99.90;;;;;;5065849;28;20372;-83
2024/01/24 11:50:05;;;;;;;27.83;14.10;;;11.00;99.90;;;;;;5066375;28;20067;-80
2024/01/24 11:52:30;;;;;;;39.17;23.80;;;11.00;99.90;;;;;;5063067;28;20489;-83
2024/01/24 11:54:56;;;;;;;63.40;57.90;;;11.00;99.90;;;;;;5043978;28;20040;-81
2024/01/24 11:57:22;;;;;;;64.10;45.47;;;11.10;99.90;;;;;;5038606;28;20112;-80
2024/01/24 11:59:48;;;;;;;33.00;26.48;;;11.10;99.90;;;;;;5035242;28;20037;-81
2024/01/24 12:02:13;;;;;;;92.90;83.93;;;11.00;99.90;;;;;;5023706;28;20044;-86
2024/01/24 12:04:39;;;;;;;26.08;10.25;;;11.10;99.90;;;;;;5041394;28;20896;-81
2024/01/24 12:07:07;;;;;;;46.92;41.63;;;11.10;99.90;;;;;;5027639;28;20033;-81
2024/01/24 12:09:33;;;;;;;25.48;10.85;;;11.10;99.90;;;;;;5036419;28;20471;-81
2024/01/24 12:11:59;;;;;;;23.20;12.02;;;11.10;99.90;;;;;;5047817;28;20136;-84
2024/01/24 12:14:25;;;;;;;28.48;18.13;;;11.10;99.90;;;;;;5030222;28;20053;-81
2024/01/24 12:16:51;;;;;;;46.30;41.33;;;11.20;99.90;;;;;;5027025;28;20075;-81
2024/01/24 12:19:18;;;;;;;26.65;11.18;;;11.30;99.90;;;;;;5043568;28;20052;-80